Time;durP1;ratioP1;P1;durP2;ratioP2;P2;SDS_P1;SDS_P2;PMS_P1;PMS_P2;Temp;Humidity;BMP_temperature;BMP_pressure;BME280_temperature;BME280_humidity;BME280_pressure;Samples;Min_cycle;Max_cycle;Signal;HPM_P1;HPM_P2
2022/06/24 00:00:14;;;;;;;3.55;1.25;;;21.30;83.50;;;;;;5059788;28;20492;-82
2022/06/24 00:02:47;;;;;;;2.35;0.93;;;21.30;83.60;;;;;;5031935;28;20045;-82
2022/06/24 00:05:14;;;;;;;1.75;1.20;;;21.30;84.30;;;;;;5063050;28;20114;-82
2022/06/24 00:07:50;;;;;;;2.97;1.00;;;21.20;83.80;;;;;;5067812;28;20516;-82
2022/06/24 00:10:23;;;;;;;4.25;1.42;;;21.20;83.90;;;;;;5041597;28;20079;-82
2022/06/24 00:12:52;;;;;;;2.63;1.25;;;21.20;84.20;;;;;;5044277;28;20048;-82
2022/06/24 00:15:29;;;;;;;2.38;1.38;;;21.10;84.00;;;;;;5035751;28;20504;-82
2022/06/24 00:17:57;;;;;;;4.00;1.58;;;21.10;84.00;;;;;;5037235;28;20048;-83
2022/06/24 00:20:25;;;;;;;2.80;1.70;;;21.10;84.00;;;;;;5048795;28;20051;-82
2022/06/24 00:22:52;;;;;;;3.22;1.80;;;21.10;84.30;;;;;;5054096;28;20033;-83
2022/06/24 00:25:22;;;;;;;2.33;1.30;;;21.00;84.40;;;;;;5041856;28;20045;-82
2022/06/24 00:28:10;;;;;;;3.95;2.15;;;21.00;84.40;;;;;;5056733;28;20048;-83
2022/06/24 00:30:51;;;;;;;2.83;1.70;;;21.00;84.40;;;;;;5048228;28;20380;-82
2022/06/24 00:33:23;;;;;;;3.95;1.50;;;21.00;84.50;;;;;;5064351;28;20045;-83
2022/06/24 00:35:56;;;;;;;4.38;2.10;;;21.00;85.00;;;;;;5045210;28;20037;-82
2022/06/24 00:38:23;;;;;;;4.55;2.40;;;21.00;84.40;;;;;;5058280;28;20035;-82
2022/06/24 00:41:04;;;;;;;3.60;1.90;;;21.00;84.30;;;;;;5044258;28;20128;-82
2022/06/24 00:43:31;;;;;;;3.50;2.03;;;21.10;84.40;;;;;;5060870;28;20057;-82
2022/06/24 00:46:09;;;;;;;2.83;2.15;;;21.10;84.40;;;;;;5064636;28;20056;-82
2022/06/24 00:48:38;;;;;;;3.22;2.03;;;21.10;84.30;;;;;;5049288;28;20098;-82
2022/06/24 00:51:09;;;;;;;3.35;1.80;;;21.10;84.40;;;;;;5061312;28;20048;-82
2022/06/24 00:53:55;;;;;;;3.80;2.20;;;21.10;84.40;;;;;;5066665;28;20049;-82
2022/06/24 00:56:26;;;;;;;3.15;2.20;;;21.20;84.30;;;;;;5058122;28;20029;-82
2022/06/24 00:58:55;;;;;;;3.10;1.77;;;21.20;84.50;;;;;;5039376;28;20040;-82
2022/06/24 01:01:31;;;;;;;3.38;1.88;;;21.10;84.50;;;;;;5052553;28;20083;-82
2022/06/24 01:04:00;;;;;;;3.35;2.25;;;21.20;84.60;;;;;;5061872;28;20469;-83
2022/06/24 01:06:29;;;;;;;3.28;2.47;;;21.20;84.70;;;;;;5063214;28;20040;-83
2022/06/24 01:08:57;;;;;;;4.88;2.95;;;21.10;84.90;;;;;;5050348;28;20106;-81
2022/06/24 01:11:25;;;;;;;4.65;2.80;;;21.10;85.20;;;;;;5063383;28;20441;-82
2022/06/24 01:13:53;;;;;;;4.82;2.97;;;21.00;85.40;;;;;;5058479;28;20036;-81
2022/06/24 01:16:24;;;;;;;3.83;2.08;;;20.80;85.70;;;;;;5052658;28;20119;-81
2022/06/24 01:18:57;;;;;;;6.50;2.58;;;20.80;86.00;;;;;;5068802;28;20047;-82
2022/06/24 01:21:36;;;;;;;4.30;3.28;;;20.80;86.40;;;;;;5063043;28;20052;-80
2022/06/24 01:24:10;;;;;;;4.15;3.30;;;20.70;86.60;;;;;;5049630;28;20056;-80
2022/06/24 01:26:41;;;;;;;4.82;2.58;;;20.70;86.70;;;;;;5053252;28;20041;-80
2022/06/24 01:29:14;;;;;;;5.28;3.30;;;20.60;86.90;;;;;;5036463;28;20194;-80
2022/06/24 01:31:48;;;;;;;4.38;2.60;;;20.60;87.10;;;;;;5052467;28;20075;-80
2022/06/24 01:34:18;;;;;;;5.93;3.72;;;20.60;87.20;;;;;;5065523;28;20047;-79
2022/06/24 01:36:46;;;;;;;6.28;4.38;;;20.60;87.40;;;;;;5055753;28;20492;-80
2022/06/24 01:39:13;;;;;;;6.68;4.13;;;20.50;88.00;;;;;;5061701;28;20063;-80
2022/06/24 01:41:41;;;;;;;6.95;4.00;;;20.40;88.30;;;;;;5066206;28;20045;-78
2022/06/24 01:44:08;;;;;;;6.65;4.63;;;20.30;88.70;;;;;;5052395;28;20057;-76
2022/06/24 01:46:35;;;;;;;7.70;4.60;;;20.20;89.30;;;;;;5052258;28;20075;-77
2022/06/24 01:49:03;;;;;;;5.60;4.10;;;20.20;89.50;;;;;;5052080;28;20053;-77
2022/06/24 01:51:31;;;;;;;5.32;3.40;;;20.20;89.80;;;;;;5052927;28;20497;-77
2022/06/24 01:53:58;;;;;;;7.97;3.28;;;20.20;89.60;;;;;;5064704;28;20136;-77
2022/06/24 01:56:26;;;;;;;4.72;3.22;;;20.10;89.80;;;;;;5019185;28;20147;-77
2022/06/24 01:58:53;;;;;;;9.45;3.28;;;20.10;89.90;;;;;;5048685;28;20567;-77
2022/06/24 02:01:20;;;;;;;5.18;2.90;;;20.20;90.10;;;;;;5051589;28;20107;-76
2022/06/24 02:03:47;;;;;;;4.75;2.95;;;20.00;90.20;;;;;;5062523;28;20693;-77
2022/06/24 02:06:15;;;;;;;5.55;2.47;;;20.00;90.20;;;;;;5037559;28;20459;-77
2022/06/24 02:08:42;;;;;;;4.10;2.72;;;20.00;90.20;;;;;;5064764;28;20041;-77
2022/06/24 02:14:03;;;;;;;4.18;2.60;;;20.00;90.60;;;;;;5053698;28;20048;-78
2022/06/24 02:16:31;;;;;;;3.45;2.28;;;20.00;90.30;;;;;;5064839;28;20385;-78
2022/06/24 02:18:59;;;;;;;4.35;3.13;;;20.00;90.20;;;;;;5056329;28;20045;-78
2022/06/24 02:21:27;;;;;;;4.28;2.67;;;20.00;90.20;;;;;;5051553;28;20110;-78
2022/06/24 02:23:54;;;;;;;4.38;2.50;;;20.10;90.30;;;;;;5067125;28;20048;-82
2022/06/24 02:26:22;;;;;;;5.20;3.13;;;20.00;90.40;;;;;;5038611;28;20040;-78
2022/06/24 02:28:49;;;;;;;5.45;3.63;;;20.00;90.50;;;;;;5035223;28;20445;-77
2022/06/24 02:31:16;;;;;;;6.53;3.40;;;20.00;90.70;;;;;;5049751;28;20408;-77
2022/06/24 02:33:43;;;;;;;4.13;2.78;;;19.80;90.90;;;;;;5056552;28;20117;-77
2022/06/24 02:36:10;;;;;;;3.85;1.90;;;19.90;90.90;;;;;;5046627;28;20052;-77
2022/06/24 02:38:37;;;;;;;3.67;1.80;;;19.90;90.90;;;;;;5065519;28;20690;-78
2022/06/24 02:41:11;;;;;;;4.47;2.05;;;19.90;90.80;;;;;;5030279;28;20055;-78
2022/06/24 02:43:39;;;;;;;2.70;1.45;;;20.00;90.80;;;;;;5036822;28;20049;-78
2022/06/24 02:46:12;;;;;;;2.67;1.33;;;19.90;90.80;;;;;;5063192;28;20174;-77
2022/06/24 02:48:41;;;;;;;5.50;1.58;;;19.90;90.80;;;;;;5058322;28;20060;-77
2022/06/24 02:51:11;;;;;;;3.90;1.67;;;19.80;91.00;;;;;;5069791;28;20120;-77
2022/06/24 02:53:38;;;;;;;2.85;1.38;;;19.80;91.30;;;;;;5069635;28;20098;-79
2022/06/24 02:56:11;;;;;;;2.63;0.93;;;19.80;91.10;;;;;;5066943;28;20040;-79
2022/06/24 02:58:39;;;;;;;2.03;1.00;;;19.60;91.30;;;;;;5065769;28;20095;-79
2022/06/24 03:01:07;;;;;;;3.25;1.10;;;19.50;91.50;;;;;;5018476;28;20049;-78
2022/06/24 03:03:34;;;;;;;1.92;0.93;;;19.30;91.70;;;;;;5035839;28;20037;-78
2022/06/24 03:06:02;;;;;;;2.35;1.20;;;19.20;91.90;;;;;;5049520;28;20064;-78
2022/06/24 03:08:29;;;;;;;2.28;1.00;;;19.00;92.00;;;;;;5056144;28;20049;-78
2022/06/24 03:10:57;;;;;;;1.90;0.85;;;19.00;92.00;;;;;;5051147;28;20107;-78
2022/06/24 03:13:24;;;;;;;1.23;0.80;;;19.00;92.00;;;;;;5064414;28;20078;-78
2022/06/24 03:15:51;;;;;;;1.15;0.77;;;18.90;91.90;;;;;;5066229;28;20045;-78
2022/06/24 03:18:20;;;;;;;1.55;0.80;;;18.80;91.90;;;;;;5047833;28;20051;-78
2022/06/24 03:20:47;;;;;;;1.58;0.93;;;18.80;92.00;;;;;;5054269;28;20045;-78
2022/06/24 03:23:16;;;;;;;2.25;0.95;;;18.70;92.10;;;;;;5038844;28;20466;-79
2022/06/24 03:25:44;;;;;;;2.13;0.70;;;18.70;92.10;;;;;;5047849;28;20044;-79
2022/06/24 03:28:11;;;;;;;1.40;0.82;;;18.60;92.20;;;;;;5067108;28;20040;-80
2022/06/24 03:30:39;;;;;;;3.97;0.90;;;18.60;92.20;;;;;;5052709;28;20056;-80
2022/06/24 03:33:07;;;;;;;1.90;0.77;;;18.60;92.30;;;;;;5057925;28;20130;-80
2022/06/24 03:35:34;;;;;;;1.38;0.60;;;18.60;92.20;;;;;;5043922;28;20045;-80
2022/06/24 03:38:01;;;;;;;2.15;0.90;;;18.60;92.10;;;;;;5052099;28;20090;-80
2022/06/24 03:40:28;;;;;;;1.25;0.60;;;18.70;92.10;;;;;;5029775;28;20036;-79
2022/06/24 03:42:55;;;;;;;2.72;0.80;;;18.70;92.00;;;;;;5054673;28;20053;-79
2022/06/24 03:45:22;;;;;;;1.40;0.80;;;18.70;92.00;;;;;;5067748;28;20559;-80
2022/06/24 03:47:49;;;;;;;1.45;0.75;;;18.70;92.00;;;;;;5047144;28;20053;-80
2022/06/24 03:50:16;;;;;;;1.80;0.70;;;18.60;92.00;;;;;;5068434;28;20128;-79
2022/06/24 03:52:44;;;;;;;2.17;1.05;;;18.60;92.00;;;;;;5048697;28;20098;-79
2022/06/24 03:55:11;;;;;;;2.78;0.90;;;18.60;92.10;;;;;;5060045;28;20048;-79
2022/06/24 03:57:38;;;;;;;1.67;0.77;;;18.50;92.10;;;;;;5048640;28;20041;-80
2022/06/24 04:00:07;;;;;;;1.98;0.80;;;18.50;92.10;;;;;;5051476;28;20071;-80
2022/06/24 04:02:38;;;;;;;1.52;0.80;;;18.50;92.00;;;;;;5062429;28;20475;-80
2022/06/24 04:05:12;;;;;;;1.58;0.77;;;18.50;92.00;;;;;;5051292;28;20049;-79
2022/06/24 04:07:39;;;;;;;2.88;0.60;;;18.50;92.00;;;;;;5071615;28;20041;-80
2022/06/24 04:10:07;;;;;;;2.42;0.52;;;18.50;91.90;;;;;;5054119;28;20073;-80
2022/06/24 04:12:34;;;;;;;1.13;0.60;;;18.50;91.90;;;;;;5053982;28;20041;-79
2022/06/24 04:15:14;;;;;;;2.53;1.20;;;18.50;91.90;;;;;;5030261;28;20037;-79
2022/06/24 04:17:45;;;;;;;1.60;0.70;;;18.50;91.90;;;;;;5068922;28;20041;-79
2022/06/24 04:20:17;;;;;;;2.22;0.80;;;18.50;91.90;;;;;;5067073;28;20064;-79
2022/06/24 04:22:45;;;;;;;3.47;0.88;;;18.40;91.90;;;;;;5073126;28;20493;-80
2022/06/24 04:25:12;;;;;;;1.08;0.55;;;18.40;91.90;;;;;;5029120;28;20121;-79
2022/06/24 04:27:40;;;;;;;2.08;0.60;;;18.40;92.10;;;;;;5039113;28;20041;-79
2022/06/24 04:30:09;;;;;;;3.85;0.68;;;18.40;91.90;;;;;;5053305;28;20551;-79
2022/06/24 04:32:36;;;;;;;1.63;0.68;;;18.30;91.80;;;;;;5053308;28;20037;-80
2022/06/24 04:35:05;;;;;;;1.27;0.50;;;18.40;91.90;;;;;;5067449;28;20043;-80
2022/06/24 04:37:37;;;;;;;1.35;0.70;;;18.40;91.80;;;;;;5060707;28;20064;-80
2022/06/24 04:40:06;;;;;;;2.33;0.60;;;18.40;91.80;;;;;;5067033;28;20073;-80
2022/06/24 04:42:33;;;;;;;3.17;0.60;;;18.40;91.80;;;;;;5027986;28;20060;-80
2022/06/24 04:45:02;;;;;;;1.98;0.68;;;18.50;91.80;;;;;;5048537;28;20520;-80
2022/06/24 04:47:29;;;;;;;1.90;0.73;;;18.50;91.70;;;;;;5063724;28;20374;-81
2022/06/24 04:49:56;;;;;;;2.53;0.95;;;18.50;91.70;;;;;;5055083;28;20044;-81
2022/06/24 04:52:23;;;;;;;1.77;0.65;;;18.50;91.70;;;;;;5047978;28;20057;-80
2022/06/24 04:54:50;;;;;;;1.67;0.68;;;18.50;91.60;;;;;;5053759;28;20038;-81
2022/06/24 04:57:17;;;;;;;1.70;0.60;;;18.50;91.60;;;;;;5070071;28;20040;-81
2022/06/24 04:59:44;;;;;;;1.33;0.60;;;18.50;91.70;;;;;;5056248;28;20090;-81
2022/06/24 05:02:11;;;;;;;2.00;0.60;;;18.50;91.70;;;;;;5056084;28;20439;-81
2022/06/24 05:04:39;;;;;;;1.48;0.80;;;18.50;91.70;;;;;;5053152;28;20492;-80
2022/06/24 05:07:06;;;;;;;1.30;0.65;;;18.50;91.70;;;;;;5047326;28;20040;-80
2022/06/24 05:09:34;;;;;;;1.88;0.68;;;18.50;91.90;;;;;;5056343;28;20055;-80
2022/06/24 05:12:01;;;;;;;1.17;0.50;;;18.40;91.60;;;;;;5053442;28;20107;-78
2022/06/24 05:14:29;;;;;;;1.77;0.70;;;18.40;91.70;;;;;;5052828;28;20041;-79
2022/06/24 05:16:57;;;;;;;1.42;0.77;;;18.40;91.70;;;;;;5030817;28;20049;-79
2022/06/24 05:19:24;;;;;;;0.88;0.50;;;18.50;91.70;;;;;;5023993;28;20052;-79
2022/06/24 05:21:51;;;;;;;1.20;0.50;;;18.50;91.70;;;;;;5055366;28;20107;-79
2022/06/24 05:24:22;;;;;;;2.42;0.60;;;18.60;91.70;;;;;;5056596;28;20500;-79
2022/06/24 05:26:49;;;;;;;1.05;0.57;;;18.60;91.70;;;;;;5027391;28;20056;-79
2022/06/24 05:29:17;;;;;;;0.88;0.50;;;18.60;91.60;;;;;;5052557;28;20103;-79
2022/06/24 05:31:48;;;;;;;1.90;0.50;;;18.60;91.60;;;;;;5054811;28;20463;-79
2022/06/24 05:34:15;;;;;;;1.58;0.60;;;18.70;91.60;;;;;;5052531;28;20040;-80
2022/06/24 05:36:42;;;;;;;1.58;0.50;;;18.70;91.60;;;;;;5059438;28;20094;-80
2022/06/24 05:39:10;;;;;;;2.13;0.70;;;18.70;91.50;;;;;;5056176;28;20048;-79
2022/06/24 05:41:42;;;;;;;2.15;0.68;;;18.70;91.50;;;;;;5056940;28;20123;-80
2022/06/24 05:44:10;;;;;;;2.13;0.80;;;18.70;91.50;;;;;;5052165;28;20067;-79
2022/06/24 05:46:41;;;;;;;2.00;0.60;;;18.70;91.50;;;;;;5044045;28;20205;-79
2022/06/24 05:49:08;;;;;;;1.90;0.80;;;18.70;91.50;;;;;;5049806;28;20048;-79
2022/06/24 05:51:36;;;;;;;1.88;0.80;;;18.80;91.60;;;;;;5054605;28;20045;-80
2022/06/24 05:56:49;;;;;;;3.58;1.00;;;18.70;91.60;;;;;;5064071;28;20083;-80
2022/06/24 05:59:16;;;;;;;2.45;0.70;;;18.70;91.60;;;;;;5037065;28;20485;-80
2022/06/24 06:01:44;;;;;;;2.70;1.02;;;18.70;91.60;;;;;;5055041;28;20049;-79
2022/06/24 06:04:11;;;;;;;2.38;1.00;;;18.70;91.70;;;;;;5039123;28;20053;-79
2022/06/24 06:06:38;;;;;;;1.63;1.00;;;18.70;91.70;;;;;;5051231;28;20067;-74
2022/06/24 06:09:05;;;;;;;2.13;0.93;;;18.70;91.70;;;;;;5070010;28;20045;-76
2022/06/24 06:11:32;;;;;;;1.83;0.82;;;18.70;91.70;;;;;;5034419;28;20444;-76
2022/06/24 06:13:59;;;;;;;2.65;1.00;;;18.70;91.60;;;;;;5043911;28;20135;-74
2022/06/24 06:16:27;;;;;;;1.60;0.70;;;18.70;91.60;;;;;;5060237;28;20040;-74
2022/06/24 06:18:54;;;;;;;1.63;0.90;;;18.80;91.60;;;;;;5052922;28;20090;-74
2022/06/24 06:21:21;;;;;;;1.83;0.80;;;18.80;91.60;;;;;;5044901;28;20047;-73
2022/06/24 06:23:48;;;;;;;1.50;0.63;;;18.80;91.50;;;;;;5065073;28;20060;-75
2022/06/24 06:26:15;;;;;;;1.95;0.70;;;18.90;91.50;;;;;;5025057;28;20764;-75
2022/06/24 06:28:42;;;;;;;1.23;0.60;;;18.90;91.50;;;;;;5051238;28;20382;-75
2022/06/24 06:31:09;;;;;;;1.92;0.63;;;18.90;91.50;;;;;;5051722;28;20462;-75
2022/06/24 06:33:37;;;;;;;3.53;0.85;;;19.00;91.50;;;;;;5055724;28;20037;-75
2022/06/24 06:36:09;;;;;;;1.13;0.52;;;19.00;91.50;;;;;;5047250;28;20447;-75
2022/06/24 06:38:36;;;;;;;1.80;0.73;;;19.00;91.50;;;;;;5063622;28;20036;-75
2022/06/24 06:41:10;;;;;;;1.73;0.82;;;19.00;91.50;;;;;;5052409;28;20058;-76
2022/06/24 06:43:38;;;;;;;1.10;0.40;;;19.10;91.50;;;;;;5056887;28;20049;-77
2022/06/24 06:46:09;;;;;;;2.25;0.85;;;19.10;91.50;;;;;;5052552;28;20068;-75
2022/06/24 06:48:36;;;;;;;1.98;0.70;;;19.20;91.50;;;;;;5054810;28;20075;-76
2022/06/24 06:51:03;;;;;;;1.27;0.60;;;19.20;91.40;;;;;;5065535;28;20044;-75
2022/06/24 06:53:30;;;;;;;1.10;0.60;;;19.20;91.40;;;;;;5053119;28;20122;-75
2022/06/24 06:55:57;;;;;;;3.95;0.70;;;19.30;91.50;;;;;;5051300;28;20036;-75
2022/06/24 06:58:24;;;;;;;1.67;0.70;;;19.40;91.40;;;;;;5068725;28;20091;-76
2022/06/24 07:00:52;;;;;;;1.90;0.80;;;19.40;91.40;;;;;;5053036;28;20070;-76
2022/06/24 07:03:19;;;;;;;1.30;0.65;;;19.40;91.30;;;;;;5069661;28;20052;-76
2022/06/24 07:05:46;;;;;;;2.50;0.82;;;19.50;91.30;;;;;;5064339;28;20140;-76
2022/06/24 07:08:16;;;;;;;1.48;0.85;;;19.40;91.20;;;;;;5057423;28;20124;-76
2022/06/24 07:10:44;;;;;;;1.48;0.57;;;19.40;91.20;;;;;;5069439;28;20068;-76
2022/06/24 07:13:12;;;;;;;1.25;0.70;;;19.40;91.20;;;;;;5070256;28;20090;-75
2022/06/24 07:15:39;;;;;;;2.38;0.70;;;19.40;91.20;;;;;;5055169;28;20111;-76
2022/06/24 07:18:06;;;;;;;1.70;0.80;;;19.40;91.20;;;;;;5064774;28;20078;-76
2022/06/24 07:20:34;;;;;;;2.00;0.88;;;19.40;91.10;;;;;;5034478;28;20072;-76
2022/06/24 07:23:01;;;;;;;3.22;1.15;;;19.40;91.20;;;;;;5051395;28;20512;-76
2022/06/24 07:25:30;;;;;;;3.25;1.38;;;19.40;91.20;;;;;;5055295;28;20041;-76
2022/06/24 07:27:57;;;;;;;1.83;0.93;;;19.30;91.20;;;;;;5066553;28;20037;-77
2022/06/24 07:30:24;;;;;;;2.60;0.90;;;19.20;91.30;;;;;;5066535;28;20111;-76
2022/06/24 07:32:50;;;;;;;1.98;0.90;;;19.10;91.40;;;;;;5069966;28;20454;-75
2022/06/24 07:35:18;;;;;;;1.60;0.90;;;19.10;91.40;;;;;;5053812;28;20123;-76
2022/06/24 07:38:05;;;;;;;1.50;0.90;;;19.10;91.50;;;;;;5052843;28;20507;-77
2022/06/24 07:40:32;;;;;;;1.38;0.90;;;19.10;91.50;;;;;;5047731;28;20450;-76
2022/06/24 07:42:59;;;;;;;2.85;0.80;;;19.20;91.50;;;;;;5055685;28;20077;-76
2022/06/24 07:45:26;;;;;;;1.83;0.68;;;19.20;91.40;;;;;;5063337;28;20151;-76
2022/06/24 07:47:53;;;;;;;1.92;1.05;;;19.20;91.50;;;;;;5056650;28;20048;-76
2022/06/24 07:50:20;;;;;;;2.53;1.15;;;19.30;91.50;;;;;;5061761;28;20064;-76
2022/06/24 07:52:47;;;;;;;2.78;0.82;;;19.30;91.50;;;;;;5052854;28;20051;-75
2022/06/24 07:57:59;;;;;;;3.63;1.60;;;19.30;91.50;;;;;;5069370;28;20045;-76
2022/06/24 08:00:27;;;;;;;3.65;1.50;;;19.20;91.50;;;;;;5054771;28;20106;-76
2022/06/24 08:02:54;;;;;;;3.22;1.42;;;19.20;91.50;;;;;;5061943;28;20041;-76
2022/06/24 08:05:21;;;;;;;2.67;1.58;;;19.30;91.50;;;;;;5054491;28;20051;-75
2022/06/24 08:07:48;;;;;;;2.92;1.40;;;19.30;91.50;;;;;;5073088;28;20506;-75
2022/06/24 08:10:15;;;;;;;3.45;2.22;;;19.30;91.50;;;;;;5060477;28;20115;-75
2022/06/24 08:12:42;;;;;;;3.30;1.70;;;19.30;91.60;;;;;;5044094;28;20076;-75
2022/06/24 08:15:09;;;;;;;3.47;1.95;;;19.30;91.60;;;;;;5067322;28;20072;-75
2022/06/24 08:17:36;;;;;;;3.65;2.00;;;19.30;91.60;;;;;;5036138;28;20049;-77
2022/06/24 08:20:04;;;;;;;4.47;1.30;;;19.30;91.60;;;;;;5060360;28;20072;-76
2022/06/24 08:22:31;;;;;;;3.22;1.85;;;19.40;91.60;;;;;;5060403;28;20476;-76
2022/06/24 08:24:58;;;;;;;3.60;1.75;;;19.50;91.50;;;;;;5047459;28;20052;-77
2022/06/24 08:27:45;;;;;;;2.63;1.60;;;19.50;91.50;;;;;;5039098;28;20129;-75
2022/06/24 08:30:13;;;;;;;2.00;1.35;;;19.60;91.40;;;;;;5060015;28;20489;-74
2022/06/24 08:32:39;;;;;;;2.50;1.85;;;19.70;91.40;;;;;;5065575;28;20045;-74
2022/06/24 08:35:07;;;;;;;2.75;1.35;;;19.70;91.30;;;;;;5063333;28;20049;-74
2022/06/24 08:37:53;;;;;;;3.28;1.63;;;19.80;91.30;;;;;;5059209;28;20106;-74
2022/06/24 08:40:21;;;;;;;2.28;1.55;;;19.90;91.20;;;;;;5062984;28;20037;-76
2022/06/24 08:42:52;;;;;;;4.05;1.80;;;20.10;91.20;;;;;;5055863;28;20056;-77
2022/06/24 08:45:20;;;;;;;4.15;2.25;;;20.20;91.00;;;;;;5039096;28;20136;-76
2022/06/24 08:47:48;;;;;;;4.15;2.20;;;20.30;90.90;;;;;;5061926;28;20040;-76
2022/06/24 08:50:16;;;;;;;7.78;2.42;;;20.40;90.80;;;;;;5063980;28;20087;-76
2022/06/24 08:52:52;;;;;;;2.75;1.75;;;20.50;90.70;;;;;;5063800;28;20485;-76
2022/06/24 08:55:23;;;;;;;2.97;2.13;;;20.60;90.70;;;;;;5064090;28;20127;-76
2022/06/24 08:57:51;;;;;;;3.63;2.65;;;20.70;90.60;;;;;;5069773;28;20063;-76
2022/06/24 09:00:20;;;;;;;4.85;3.45;;;20.70;90.50;;;;;;5050269;28;20061;-77
2022/06/24 09:02:48;;;;;;;5.85;2.85;;;20.70;90.40;;;;;;5062048;28;20388;-75
2022/06/24 09:05:16;;;;;;;4.13;2.50;;;20.70;90.40;;;;;;5064804;28;20040;-76
2022/06/24 09:07:44;;;;;;;3.63;1.95;;;20.80;90.50;;;;;;5032394;28;20041;-75
2022/06/24 09:10:13;;;;;;;4.82;3.10;;;20.90;90.40;;;;;;5063260;28;20045;-75
2022/06/24 09:12:43;;;;;;;4.15;2.90;;;21.00;90.30;;;;;;5054948;28;20131;-76
2022/06/24 09:15:12;;;;;;;3.45;2.80;;;21.00;90.20;;;;;;5045166;28;20067;-76
2022/06/24 09:17:40;;;;;;;4.47;2.28;;;21.00;90.20;;;;;;5059458;28;20522;-74
2022/06/24 09:20:07;;;;;;;4.75;3.15;;;21.10;90.10;;;;;;5072079;28;20098;-74
2022/06/24 09:23:07;;;;;;;3.38;2.70;;;21.10;90.00;;;;;;5058885;28;20039;-76
2022/06/24 09:25:48;;;;;;;5.03;2.88;;;21.30;89.80;;;;;;5061196;28;20048;-75
2022/06/24 09:28:27;;;;;;;4.38;3.20;;;21.30;89.60;;;;;;5065374;28;20032;-75
2022/06/24 09:31:02;;;;;;;5.18;2.47;;;21.30;89.40;;;;;;5070527;28;20564;-75
2022/06/24 09:33:39;;;;;;;3.80;2.40;;;21.30;89.40;;;;;;5049029;28;20037;-75
2022/06/24 09:36:08;;;;;;;4.10;2.40;;;21.30;89.20;;;;;;5057912;28;20053;-75
2022/06/24 09:39:04;;;;;;;2.15;1.45;;;21.40;89.30;;;;;;5063995;28;20051;-74
2022/06/24 09:41:46;;;;;;;3.25;2.30;;;21.50;89.00;;;;;;5052623;28;20985;-75
2022/06/24 09:44:14;;;;;;;3.42;2.58;;;21.60;88.70;;;;;;5063334;28;20064;-76
2022/06/24 09:46:41;;;;;;;2.83;1.90;;;21.60;88.70;;;;;;5029050;28;20140;-75
2022/06/24 09:49:11;;;;;;;3.63;2.58;;;21.70;88.80;;;;;;5062483;28;20036;-75
2022/06/24 09:51:40;;;;;;;4.25;2.83;;;21.70;88.50;;;;;;5047021;28;20055;-74
2022/06/24 09:54:07;;;;;;;3.03;2.40;;;21.60;88.50;;;;;;5053439;28;20099;-76
2022/06/24 09:56:36;;;;;;;3.85;2.78;;;21.60;88.70;;;;;;5062466;28;20037;-76
2022/06/24 10:01:49;;;;;;;2.63;1.73;;;21.80;88.50;;;;;;5076308;28;20098;-76
2022/06/24 10:04:18;;;;;;;3.55;2.78;;;21.80;88.40;;;;;;5070242;28;20523;-75
2022/06/24 10:06:48;;;;;;;4.00;2.80;;;21.80;88.20;;;;;;5064879;28;20574;-76
2022/06/24 10:09:20;;;;;;;3.53;2.72;;;21.70;88.30;;;;;;5052528;28;20068;-76
2022/06/24 10:11:49;;;;;;;3.67;2.65;;;21.70;88.40;;;;;;5065849;28;20090;-76
2022/06/24 10:14:16;;;;;;;3.08;2.22;;;21.60;88.40;;;;;;5063504;28;20067;-76
2022/06/24 10:16:47;;;;;;;4.25;3.13;;;21.70;88.50;;;;;;5069861;28;20045;-76
2022/06/24 10:19:17;;;;;;;3.67;2.67;;;21.70;88.50;;;;;;5057891;28;20396;-74
2022/06/24 10:21:48;;;;;;;5.93;2.83;;;21.70;88.40;;;;;;5062411;28;20145;-76
2022/06/24 10:24:16;;;;;;;4.00;3.20;;;21.80;88.40;;;;;;5052635;28;20046;-76
2022/06/24 10:26:48;;;;;;;5.28;3.60;;;21.90;88.80;;;;;;5055952;28;20041;-76
2022/06/24 10:29:37;;;;;;;7.05;4.63;;;22.00;87.80;;;;;;5057765;28;20126;-75
2022/06/24 10:32:05;;;;;;;5.05;4.25;;;22.00;87.60;;;;;;5048187;28;20053;-76
2022/06/24 10:34:37;;;;;;;6.70;5.63;;;22.10;87.30;;;;;;5051652;28;20400;-75
2022/06/24 10:37:25;;;;;;;5.38;4.18;;;22.10;87.10;;;;;;5067259;28;20040;-76
2022/06/24 10:39:54;;;;;;;6.60;4.10;;;22.20;86.80;;;;;;5063191;28;20501;-76
2022/06/24 10:42:22;;;;;;;6.10;5.07;;;22.20;86.80;;;;;;5061348;28;20072;-76
2022/06/24 10:44:56;;;;;;;6.30;4.57;;;22.30;86.60;;;;;;5069901;28;20123;-76
2022/06/24 10:47:30;;;;;;;5.82;4.60;;;22.40;86.30;;;;;;5062429;28;20493;-75
2022/06/24 10:50:03;;;;;;;7.55;4.88;;;22.40;86.00;;;;;;5043123;28;20076;-75
2022/06/24 10:52:36;;;;;;;7.03;5.55;;;22.50;85.90;;;;;;5061418;28;20101;-77
2022/06/24 10:55:15;;;;;;;6.78;4.90;;;22.40;85.80;;;;;;5053671;28;20041;-76
2022/06/24 10:57:43;;;;;;;5.22;4.22;;;22.50;85.80;;;;;;5069473;28;20044;-76
2022/06/24 11:00:24;;;;;;;5.75;4.30;;;22.60;85.50;;;;;;5069167;28;20044;-76
2022/06/24 11:03:02;;;;;;;5.32;4.05;;;22.80;84.90;;;;;;5059567;28;20106;-76
2022/06/24 11:05:41;;;;;;;5.90;4.00;;;23.00;84.70;;;;;;5068967;28;20047;-76
2022/06/24 11:08:19;;;;;;;4.70;3.85;;;23.20;84.10;;;;;;5065086;28;20047;-76
2022/06/24 11:10:49;;;;;;;5.35;3.95;;;23.40;83.80;;;;;;5066885;28;20048;-77
2022/06/24 11:13:17;;;;;;;4.65;4.15;;;23.60;83.40;;;;;;5056885;28;20056;-76
2022/06/24 11:15:58;;;;;;;5.40;4.28;;;23.70;83.20;;;;;;5037734;28;20150;-76
2022/06/24 11:18:32;;;;;;;5.75;4.20;;;23.80;82.60;;;;;;5037058;28;20065;-76
2022/06/24 11:21:09;;;;;;;5.47;4.45;;;23.90;82.10;;;;;;5064177;28;20094;-76
2022/06/24 11:23:38;;;;;;;4.88;4.03;;;23.90;81.60;;;;;;5070463;28;20036;-76
2022/06/24 11:26:18;;;;;;;4.95;4.13;;;23.90;81.60;;;;;;5051148;28;20459;-75
2022/06/24 11:28:53;;;;;;;4.72;3.67;;;23.90;81.50;;;;;;5052725;28;20078;-79
2022/06/24 11:31:25;;;;;;;4.22;3.47;;;23.80;81.30;;;;;;5052418;28;20428;-78
2022/06/24 11:33:58;;;;;;;3.88;2.25;;;23.70;81.40;;;;;;5069525;28;20070;-78
2022/06/24 11:36:27;;;;;;;4.22;3.47;;;23.80;81.30;;;;;;5053886;28;20037;-77
2022/06/24 11:38:59;;;;;;;3.63;2.90;;;23.90;80.60;;;;;;5047179;28;20075;-77
2022/06/24 11:41:31;;;;;;;3.85;2.78;;;23.90;80.70;;;;;;5067021;28;20045;-75
2022/06/24 11:44:16;;;;;;;2.85;2.10;;;23.80;79.90;;;;;;5065730;28;20048;-76
2022/06/24 11:46:50;;;;;;;4.25;2.88;;;23.90;79.70;;;;;;5048845;28;20127;-75
2022/06/24 11:49:21;;;;;;;3.10;2.05;;;24.20;79.10;;;;;;5030554;28;20048;-76
2022/06/24 11:51:49;;;;;;;3.38;1.70;;;24.60;78.40;;;;;;5067999;28;20036;-77
2022/06/24 11:54:16;;;;;;;3.20;1.50;;;25.00;77.90;;;;;;5073505;28;20094;-77
2022/06/24 11:56:43;;;;;;;2.88;1.92;;;25.30;77.00;;;;;;5034537;28;20079;-77
2022/06/24 11:59:13;;;;;;;3.28;1.90;;;25.30;75.70;;;;;;5042137;28;20062;-77
2022/06/24 12:01:46;;;;;;;3.08;2.08;;;25.00;75.60;;;;;;5052446;28;20123;-77
2022/06/24 12:04:15;;;;;;;4.60;1.67;;;24.70;76.50;;;;;;5045012;28;20041;-77
2022/06/24 12:06:44;;;;;;;2.05;1.40;;;24.40;77.20;;;;;;5050784;28;20045;-76
2022/06/24 12:09:12;;;;;;;2.90;2.40;;;24.10;77.90;;;;;;5056172;28;20037;-77
2022/06/24 12:11:41;;;;;;;3.47;2.33;;;23.90;78.50;;;;;;5043286;28;20048;-76
2022/06/24 12:14:14;;;;;;;6.65;4.85;;;23.60;78.40;;;;;;5058809;28;20111;-77
2022/06/24 12:17:03;;;;;;;7.53;5.30;;;23.20;78.30;;;;;;5065539;28;20408;-79
2022/06/24 12:19:32;;;;;;;5.10;4.40;;;22.80;79.60;;;;;;5062912;28;20044;-78
2022/06/24 12:22:11;;;;;;;4.72;4.00;;;22.30;80.90;;;;;;5059868;28;20039;-81
2022/06/24 12:24:40;;;;;;;4.28;3.45;;;21.90;82.10;;;;;;5060451;28;20504;-79
2022/06/24 12:27:08;;;;;;;4.30;2.63;;;21.50;83.10;;;;;;5048650;28;20064;-78
2022/06/24 12:29:37;;;;;;;3.20;2.30;;;21.10;83.90;;;;;;5061819;28;20049;-77
2022/06/24 12:32:11;;;;;;;3.60;3.10;;;20.80;84.90;;;;;;5069809;28;20045;-76
2022/06/24 12:34:41;;;;;;;3.10;2.40;;;20.60;85.50;;;;;;5058720;28;20087;-76
2022/06/24 12:37:11;;;;;;;2.08;1.67;;;20.80;85.70;;;;;;5058463;28;20540;-76
2022/06/24 12:39:40;;;;;;;3.30;2.22;;;21.20;84.80;;;;;;5065084;28;20094;-77
2022/06/24 12:42:12;;;;;;;2.80;2.08;;;21.40;84.40;;;;;;5066069;28;20539;-77
2022/06/24 12:44:54;;;;;;;2.33;1.55;;;21.80;83.90;;;;;;5062665;28;20583;-76
2022/06/24 12:53:11;;;;;;;1.65;1.13;;;24.20;78.90;;;;;;5007223;28;20457;-76
2022/06/24 12:55:38;;;;;;;1.42;1.00;;;24.60;77.80;;;;;;5049136;28;20085;-77
2022/06/24 12:58:07;;;;;;;1.35;0.85;;;25.00;77.60;;;;;;5066933;28;20067;-78
2022/06/24 13:00:35;;;;;;;2.08;0.90;;;25.10;77.00;;;;;;5067302;28;20049;-77
2022/06/24 13:03:02;;;;;;;1.75;1.13;;;24.70;77.70;;;;;;5055274;28;20098;-75
2022/06/24 13:05:29;;;;;;;2.20;1.17;;;24.50;78.40;;;;;;5061342;28;20162;-75
2022/06/24 13:07:57;;;;;;;2.83;1.30;;;24.40;78.60;;;;;;5055306;28;20052;-75
2022/06/24 13:10:24;;;;;;;2.42;1.80;;;24.60;78.20;;;;;;5067798;28;20132;-75
2022/06/24 13:12:51;;;;;;;1.83;1.38;;;25.00;76.80;;;;;;5043625;28;20523;-75
2022/06/24 13:15:18;;;;;;;2.63;1.50;;;25.70;75.60;;;;;;5044266;28;20033;-75
2022/06/24 13:17:46;;;;;;;2.88;1.60;;;25.70;74.80;;;;;;5065131;28;20048;-75